Time;durP1;ratioP1;P1;durP2;ratioP2;P2;SDS_P1;SDS_P2;PMS_P1;PMS_P2;Temp;Humidity;BMP_temperature;BMP_pressure;BME280_temperature;BME280_humidity;BME280_pressure;Samples;Min_cycle;Max_cycle;Signal;HPM_P1;HPM_P2
2022/04/08 00:00:15;;;;;;;0.20;0.20;;;;;;;9.98;71.51;94317.70;108101;1270;41116;-76
2022/04/08 00:03:06;;;;;;;0.90;0.50;;;;;;;9.98;71.73;94305.30;108192;1270;37921;-76
2022/04/08 00:05:37;;;;;;;1.00;0.40;;;;;;;10.00;71.81;94315.66;108160;1270;34822;-76
2022/04/08 00:08:09;;;;;;;0.50;0.40;;;;;;;9.98;72.04;94328.87;108156;1270;45349;-76
2022/04/08 00:10:40;;;;;;;0.30;0.30;;;;;;;10.00;71.72;94330.10;108168;1270;34689;-76
2022/04/08 00:13:10;;;;;;;1.00;0.40;;;;;;;10.07;71.38;94334.78;108066;1270;44877;-76
2022/04/08 00:15:42;;;;;;;0.40;0.40;;;;;;;10.14;71.27;94337.11;108049;1270;37554;-76
2022/04/08 00:18:13;;;;;;;1.50;0.50;;;;;;;10.18;70.92;94338.52;108097;1270;33726;-76
2022/04/08 00:20:44;;;;;;;1.70;0.50;;;;;;;10.20;70.87;94337.77;108067;1271;36403;-76
2022/04/08 00:23:15;;;;;;;2.30;0.60;;;;;;;10.19;70.73;94336.13;108141;1270;42234;-76
2022/04/08 00:25:46;;;;;;;1.50;0.70;;;;;;;10.20;70.49;94331.46;108110;1270;35155;-76
2022/04/08 00:28:16;;;;;;;6.80;0.60;;;;;;;10.21;70.74;94336.19;108105;1270;38856;-76
2022/04/08 00:30:47;;;;;;;2.30;0.90;;;;;;;10.20;70.91;94327.31;108134;1270;33575;-76
2022/04/08 00:33:18;;;;;;;0.70;0.50;;;;;;;10.22;70.86;94326.27;108044;1270;33856;-76
2022/04/08 00:35:49;;;;;;;1.60;0.70;;;;;;;10.25;70.89;94314.33;107916;1270;251666;-76
2022/04/08 00:38:20;;;;;;;1.60;0.60;;;;;;;10.25;71.08;94312.81;108087;1270;31429;-76
2022/04/08 00:40:50;;;;;;;1.40;0.60;;;;;;;10.27;70.77;94311.60;108051;1270;33834;-76
2022/04/08 00:43:32;;;;;;;0.70;0.50;;;;;;;10.33;70.71;94317.54;108039;1270;43403;-76
2022/04/08 00:46:03;;;;;;;1.10;0.70;;;;;;;10.36;70.52;94323.06;108088;1271;30181;-76
2022/04/08 00:48:36;;;;;;;2.00;0.60;;;;;;;10.39;70.33;94328.70;108113;1270;47495;-76
2022/04/08 00:51:08;;;;;;;0.60;0.40;;;;;;;10.43;70.15;94340.38;108170;1270;33141;-76
2022/04/08 00:53:41;;;;;;;1.20;0.30;;;;;;;10.45;70.52;94340.01;108169;1270;35786;-76
2022/04/08 00:56:13;;;;;;;1.30;0.70;;;;;;;10.40;71.15;94343.03;108140;1270;43899;-76
2022/04/08 00:58:44;;;;;;;1.10;0.70;;;;;;;10.34;71.89;94348.44;108112;1270;34799;-76
2022/04/08 01:01:15;;;;;;;0.80;0.30;;;;;;;10.25;71.96;94345.71;108162;1270;32467;-75
2022/04/08 01:03:46;;;;;;;0.60;0.60;;;;;;;10.23;72.15;94346.05;108085;1270;45798;-76
2022/04/08 01:06:17;;;;;;;1.20;0.60;;;;;;;10.20;71.94;94320.73;108158;1270;29394;-76
2022/04/08 01:08:50;;;;;;;0.70;0.40;;;;;;;10.18;71.89;94333.45;108111;1270;51902;-75
2022/04/08 01:11:22;;;;;;;0.30;0.30;;;;;;;10.15;72.33;94340.16;108149;1270;31933;-76
2022/04/08 01:13:54;;;;;;;0.90;0.50;;;;;;;10.19;72.39;94353.39;108032;1270;41985;-76
2022/04/08 01:16:25;;;;;;;0.70;0.50;;;;;;;10.18;72.36;94351.14;108118;1269;40863;-76
2022/04/08 01:18:55;;;;;;;1.50;0.70;;;;;;;10.12;72.88;94359.95;108078;1270;40187;-75
2022/04/08 01:21:26;;;;;;;1.00;0.40;;;;;;;10.04;72.96;94362.00;107955;1273;33615;-75
2022/04/08 01:23:59;;;;;;;0.50;0.40;;;;;;;10.08;72.78;94368.77;108122;1270;39854;-76
2022/04/08 01:26:30;;;;;;;0.70;0.60;;;;;;;10.09;72.78;94373.96;107942;1271;42324;-76
2022/04/08 01:29:01;;;;;;;0.80;0.50;;;;;;;10.07;72.69;94380.61;108102;1270;41213;-76
2022/04/08 01:31:32;;;;;;;1.20;0.50;;;;;;;10.03;73.19;94383.20;108047;1270;42552;-76
2022/04/08 01:34:02;;;;;;;0.80;0.50;;;;;;;9.99;74.14;94376.85;108109;1270;44811;-76
2022/04/08 01:36:33;;;;;;;0.30;0.30;;;;;;;9.95;74.89;94380.58;108073;1270;33492;-75
2022/04/08 01:39:03;;;;;;;;;;;;;;;9.88;75.43;94387.91;108140;1270;35326;-75
2022/04/08 01:41:34;;;;;;;0.90;0.70;;;;;;;9.80;75.98;94395.05;108222;1270;36835;-75
2022/04/08 01:44:05;;;;;;;0.50;0.30;;;;;;;9.71;76.80;94398.00;108051;1271;42244;-75
2022/04/08 01:46:36;;;;;;;0.60;0.40;;;;;;;9.63;77.91;94405.89;108165;1270;41453;-76
2022/04/08 01:49:07;;;;;;;1.20;0.30;;;;;;;9.56;78.72;94392.41;108174;1270;36826;-76
2022/04/08 01:51:37;;;;;;;0.60;0.40;;;;;;;9.50;78.95;94409.16;108070;1270;42245;-76
2022/04/08 01:54:09;;;;;;;1.60;0.50;;;;;;;9.45;79.22;94415.48;108124;1271;30344;-75
2022/04/08 01:56:40;;;;;;;0.90;0.60;;;;;;;9.39;79.60;94424.39;107952;1272;42752;-75
2022/04/08 01:59:10;;;;;;;2.40;0.30;;;;;;;9.35;79.14;94420.73;108159;1270;41351;-75
2022/04/08 02:01:41;;;;;;;0.80;0.60;;;;;;;9.35;79.30;94416.17;108094;1270;33369;-76
2022/04/08 02:04:12;;;;;;;2.00;0.70;;;;;;;9.36;79.41;94421.34;108122;1270;38375;-76
2022/04/08 02:06:43;;;;;;;0.50;0.30;;;;;;;9.34;79.72;94413.52;108049;1270;38360;-76
2022/04/08 02:09:14;;;;;;;1.90;0.60;;;;;;;9.34;80.05;94424.92;108098;1270;32437;-76
2022/04/08 02:11:45;;;;;;;1.40;0.30;;;;;;;9.31;80.41;94423.29;108135;1270;35528;-76
2022/04/08 02:14:15;;;;;;;0.90;0.40;;;;;;;9.28;80.88;94433.52;108106;1270;31525;-76
2022/04/08 02:16:46;;;;;;;1.60;0.50;;;;;;;9.24;81.28;94439.04;108056;1271;43588;-76
2022/04/08 02:19:17;;;;;;;0.80;0.40;;;;;;;9.22;81.16;94427.89;108142;1270;30950;-76
2022/04/08 02:21:48;;;;;;;0.60;0.50;;;;;;;9.23;81.08;94422.63;108116;1270;31377;-76
2022/04/08 02:24:19;;;;;;;1.00;0.40;;;;;;;9.22;81.24;94420.70;108066;1270;34586;-76
2022/04/08 02:26:50;;;;;;;0.60;0.60;;;;;;;9.20;81.00;94404.86;108118;1271;34074;-76
2022/04/08 02:29:21;;;;;;;3.00;0.70;;;;;;;9.15;80.52;94388.66;108113;1270;34083;-76
2022/04/08 02:31:54;;;;;;;1.30;0.30;;;;;;;9.10;80.44;94395.31;108058;1271;33929;-76
2022/04/08 02:34:25;;;;;;;1.80;0.80;;;;;;;9.05;80.09;94410.94;108074;1270;46166;-76
2022/04/08 02:36:55;;;;;;;1.00;0.50;;;;;;;8.97;79.95;94414.04;108077;1270;36406;-76
2022/04/08 02:39:26;;;;;;;0.90;0.60;;;;;;;8.85;79.97;94411.65;108086;1271;65749;-76
2022/04/08 02:41:57;;;;;;;1.00;0.70;;;;;;;8.82;80.00;94420.28;108097;1270;33738;-76
2022/04/08 02:44:30;;;;;;;1.50;0.60;;;;;;;8.81;79.76;94422.06;108107;1270;36275;-75
2022/04/08 02:47:01;;;;;;;1.40;0.70;;;;;;;8.84;79.78;94425.70;108122;1270;39341;-76
2022/04/08 02:49:32;;;;;;;0.90;0.70;;;;;;;8.84;79.57;94432.66;108090;1270;44378;-76
2022/04/08 02:52:03;;;;;;;1.30;0.50;;;;;;;8.87;79.01;94439.65;108122;1270;33534;-76
2022/04/08 02:54:34;;;;;;;1.80;0.60;;;;;;;8.90;78.74;94431.55;108092;1270;40516;-75
2022/04/08 02:57:05;;;;;;;1.10;0.40;;;;;;;8.91;78.36;94425.61;108131;1270;32485;-75
2022/04/08 02:59:36;;;;;;;1.00;0.30;;;;;;;8.94;78.07;94423.28;108112;1271;34638;-75
2022/04/08 03:02:07;;;;;;;0.70;0.40;;;;;;;8.98;77.43;94430.29;108119;1270;54219;-76
2022/04/08 03:04:38;;;;;;;2.90;0.80;;;;;;;9.00;77.27;94450.38;108173;1270;34436;-76
2022/04/08 03:07:09;;;;;;;1.70;0.50;;;;;;;8.94;77.88;94457.80;108163;1270;43031;-76
2022/04/08 03:09:39;;;;;;;2.20;0.90;;;;;;;8.80;77.80;94464.14;108121;1271;38654;-75
2022/04/08 03:12:12;;;;;;;0.50;0.40;;;;;;;8.69;78.74;94478.65;108179;1271;32166;-75
2022/04/08 03:14:43;;;;;;;1.70;0.60;;;;;;;8.58;79.88;94487.18;108113;1270;40937;-76
2022/04/08 03:17:14;;;;;;;2.10;1.30;;;;;;;8.48;80.25;94484.52;108142;1271;34545;-75
2022/04/08 03:19:45;;;;;;;1.80;0.50;;;;;;;8.43;80.25;94487.85;108082;1270;39912;-76
2022/04/08 03:22:19;;;;;;;1.60;0.50;;;;;;;8.38;80.30;94490.54;108071;1271;42138;-76
2022/04/08 03:24:50;;;;;;;0.50;0.20;;;;;;;8.34;80.22;94497.98;108116;1270;31199;-76
2022/04/08 03:27:21;;;;;;;6.40;5.70;;;;;;;8.29;80.08;94488.64;108072;1271;42422;-76
2022/04/08 03:29:52;;;;;;;3.40;1.60;;;;;;;8.24;80.04;94489.12;108152;1270;46094;-76
2022/04/08 03:32:23;;;;;;;1.20;0.70;;;;;;;8.22;80.19;94507.05;108099;1270;32117;-76
2022/04/08 03:34:58;;;;;;;2.40;0.70;;;;;;;8.24;79.74;94509.93;107985;1274;38271;-75
2022/04/08 03:37:30;;;;;;;1.50;0.60;;;;;;;8.26;79.34;94533.09;108110;1270;35458;-76
2022/04/08 03:40:01;;;;;;;1.60;0.60;;;;;;;8.20;76.74;94547.23;108125;1271;35001;-76
2022/04/08 03:42:32;;;;;;;2.20;0.40;;;;;;;8.01;72.81;94552.38;107936;1273;34283;-76
2022/04/08 03:45:06;;;;;;;2.40;0.90;;;;;;;7.80;71.86;94572.58;108186;1270;34420;-76
2022/04/08 03:47:37;;;;;;;1.50;0.50;;;;;;;7.62;67.09;94560.66;108037;1271;34024;-75
2022/04/08 03:50:11;;;;;;;2.20;0.60;;;;;;;7.53;69.10;94581.30;108206;1271;31806;-75
2022/04/08 03:52:43;;;;;;;4.30;0.80;;;;;;;7.41;70.19;94588.14;108044;1271;33110;-75
2022/04/08 03:55:13;;;;;;;3.40;0.60;;;;;;;7.30;68.43;94581.31;108020;1271;48586;-76
2022/04/08 03:57:42;;;;;;;;;;;;;;;7.30;66.80;94583.58;108102;1271;33527;-75
2022/04/08 04:00:15;;;;;;;1.10;0.60;;;;;;;7.27;66.97;94587.79;108146;1271;36862;-76
2022/04/08 04:02:46;;;;;;;6.90;0.90;;;;;;;7.22;65.05;94598.66;108087;1270;35837;-75
2022/04/08 04:05:16;;;;;;;3.30;0.70;;;;;;;7.17;65.05;94608.42;108097;1270;33721;-75
2022/04/08 04:07:47;;;;;;;4.80;0.80;;;;;;;7.12;63.41;94596.61;108080;1271;75885;-75
2022/04/08 04:10:18;;;;;;;0.90;0.40;;;;;;;7.11;62.05;94609.08;108069;1271;36785;-75
2022/04/08 04:12:50;;;;;;;1.60;0.50;;;;;;;7.10;61.36;94618.65;108111;1270;42169;-75
2022/04/08 04:15:21;;;;;;;1.20;0.40;;;;;;;7.12;58.38;94614.99;107932;1274;42642;-75
2022/04/08 04:17:52;;;;;;;2.20;0.40;;;;;;;7.17;57.14;94608.55;108082;1271;32948;-75
2022/04/08 04:20:23;;;;;;;3.10;0.80;;;;;;;7.23;55.52;94619.48;108092;1270;30393;-75
2022/04/08 04:22:54;;;;;;;3.90;0.60;;;;;;;7.26;55.44;94627.41;107938;1272;36172;-75
2022/04/08 04:25:25;;;;;;;1.30;0.60;;;;;;;7.26;54.91;94632.98;108013;1271;38020;-75
2022/04/08 04:27:56;;;;;;;1.10;1.00;;;;;;;7.27;54.47;94636.47;108059;1271;43224;-75
2022/04/08 04:30:28;;;;;;;1.80;0.80;;;;;;;7.31;53.36;94633.16;108018;1271;30360;-75
2022/04/08 04:33:00;;;;;;;2.20;0.70;;;;;;;7.41;53.01;94635.09;108033;1271;40949;-76
2022/04/08 04:35:31;;;;;;;0.20;0.20;;;;;;;7.74;52.39;94660.42;108019;1271;40422;-76
2022/04/08 04:38:02;;;;;;;1.60;0.30;;;;;;;8.13;52.25;94667.83;107999;1270;48881;-75
2022/04/08 04:40:33;;;;;;;1.20;0.50;;;;;;;8.54;51.80;94672.49;108060;1270;36500;-75
2022/04/08 04:43:04;;;;;;;2.50;0.60;;;;;;;8.87;50.62;94670.27;108022;1271;35482;-75
2022/04/08 04:45:37;;;;;;;1.90;0.70;;;;;;;9.14;49.84;94666.85;108031;1271;33816;-76
2022/04/08 04:48:10;;;;;;;2.50;0.60;;;;;;;9.36;48.63;94659.02;108068;1270;32038;-75
2022/04/08 04:50:41;;;;;;;2.80;1.10;;;;;;;9.66;49.31;94663.23;108113;1270;40874;-76
2022/04/08 04:53:12;;;;;;;1.60;0.60;;;;;;;9.94;48.60;94662.42;108047;1270;29766;-76
2022/04/08 04:55:43;;;;;;;0.70;0.40;;;;;;;10.03;46.81;94664.73;108032;1271;39638;-76
2022/04/08 04:58:14;;;;;;;2.50;0.50;;;;;;;10.06;46.35;94674.89;108044;1271;36192;-76
2022/04/08 05:00:45;;;;;;;1.40;0.70;;;;;;;10.16;46.44;94675.79;108091;1271;34249;-76
2022/04/08 05:03:15;;;;;;;2.00;0.50;;;;;;;10.43;46.76;94681.17;108058;1270;44403;-75
2022/04/08 05:05:47;;;;;;;2.90;0.70;;;;;;;10.67;46.15;94676.45;107864;1274;43808;-76
2022/04/08 05:08:18;;;;;;;3.20;0.90;;;;;;;10.77;45.87;94675.09;108113;1271;34718;-76
2022/04/08 05:10:50;;;;;;;1.90;0.90;;;;;;;11.04;46.21;94675.20;107978;1271;49241;-76
2022/04/08 05:13:21;;;;;;;3.20;0.60;;;;;;;11.25;44.47;94677.88;108038;1271;38160;-76
2022/04/08 05:15:51;;;;;;;1.50;0.80;;;;;;;11.23;44.32;94689.33;108073;1270;37068;-75
2022/04/08 05:18:22;;;;;;;3.20;0.90;;;;;;;11.38;44.67;94683.06;108033;1271;40052;-76
2022/04/08 05:20:53;;;;;;;2.60;0.70;;;;;;;11.50;43.42;94686.41;108056;1271;33675;-75
2022/04/08 05:23:28;;;;;;;3.20;1.10;;;;;;;11.60;43.16;94689.75;108035;1271;49203;-75
2022/04/08 05:26:00;;;;;;;2.10;0.90;;;;;;;11.75;42.56;94697.89;108091;1271;31701;-75
2022/04/08 05:28:31;;;;;;;0.60;0.30;;;;;;;11.72;41.91;94699.09;108051;1271;54410;-76
2022/04/08 05:31:01;;;;;;;1.50;0.60;;;;;;;11.70;42.35;94710.62;108040;1271;36618;-76
2022/04/08 05:33:32;;;;;;;1.80;0.60;;;;;;;11.98;41.74;94706.44;108039;1271;34495;-76
2022/04/08 05:36:04;;;;;;;2.60;0.60;;;;;;;11.87;41.47;94710.20;108076;1270;34070;-76
2022/04/08 05:38:34;;;;;;;1.80;0.80;;;;;;;11.87;41.98;94723.63;108009;1271;43308;-75
2022/04/08 05:41:06;;;;;;;1.90;0.90;;;;;;;12.25;40.99;94719.11;108037;1271;34728;-76
2022/04/08 05:43:37;;;;;;;1.70;0.70;;;;;;;12.27;40.86;94725.16;108049;1271;45483;-76
2022/04/08 05:46:08;;;;;;;1.80;0.60;;;;;;;12.25;39.87;94695.27;108089;1271;57487;-75
2022/04/08 05:48:39;;;;;;;1.40;0.90;;;;;;;12.19;40.41;94728.27;108130;1270;37557;-75
2022/04/08 05:51:10;;;;;;;3.90;0.90;;;;;;;12.33;39.55;94728.00;107959;1274;43084;-75
2022/04/08 05:53:41;;;;;;;4.10;1.10;;;;;;;12.47;39.97;94732.05;108090;1270;33010;-75
2022/04/08 05:56:12;;;;;;;2.20;0.80;;;;;;;12.80;39.65;94743.62;108046;1270;34665;-76
2022/04/08 05:58:43;;;;;;;1.30;0.70;;;;;;;12.87;38.78;94756.59;108105;1270;35467;-76
2022/04/08 06:01:14;;;;;;;3.90;1.40;;;;;;;13.04;39.30;94748.55;107972;1271;39205;-76
2022/04/08 06:03:45;;;;;;;2.40;1.00;;;;;;;13.43;38.04;94754.30;108009;1270;35802;-76
2022/04/08 06:06:16;;;;;;;2.20;0.60;;;;;;;13.19;37.01;94753.59;108072;1270;32103;-76
2022/04/08 06:08:47;;;;;;;2.10;1.10;;;;;;;12.84;37.96;94758.25;108034;1270;45535;-76
2022/04/08 06:11:19;;;;;;;2.40;0.60;;;;;;;13.04;37.84;94758.51;108137;1269;36127;-75
2022/04/08 06:13:50;;;;;;;3.70;0.70;;;;;;;13.26;37.96;94763.12;108041;1270;37728;-76
2022/04/08 06:16:24;;;;;;;1.50;0.80;;;;;;;13.65;37.83;94774.64;107991;1270;41790;-76
2022/04/08 06:18:55;;;;;;;1.60;0.70;;;;;;;13.65;36.64;94750.61;107982;1271;35468;-76
2022/04/08 06:21:26;;;;;;;3.50;1.20;;;;;;;13.54;36.76;94771.48;108071;1270;28598;-75
2022/04/08 06:23:57;;;;;;;1.80;0.70;;;;;;;13.79;36.31;94762.52;108043;1270;41143;-75
2022/04/08 06:26:29;;;;;;;3.20;1.00;;;;;;;13.95;36.20;94774.55;108053;1269;32588;-76
2022/04/08 06:29:00;;;;;;;2.80;0.80;;;;;;;14.03;35.57;94755.48;108057;1270;32610;-76
2022/04/08 06:31:31;;;;;;;1.60;0.60;;;;;;;14.04;35.87;94757.19;108017;1271;40820;-75
2022/04/08 06:34:03;;;;;;;3.00;1.00;;;;;;;13.98;35.32;94767.17;108064;1270;42401;-75
2022/04/08 06:36:34;;;;;;;2.70;0.90;;;;;;;14.07;35.73;94784.37;107965;1273;32466;-75
2022/04/08 06:39:05;;;;;;;3.00;0.90;;;;;;;14.45;35.54;94788.61;108063;1270;44587;-75
2022/04/08 06:41:36;;;;;;;1.90;0.90;;;;;;;14.60;34.51;94779.02;108030;1269;46402;-76
2022/04/08 06:44:07;;;;;;;2.60;0.90;;;;;;;14.54;34.46;94787.61;108032;1270;35816;-76
2022/04/08 06:46:38;;;;;;;2.50;0.80;;;;;;;14.72;33.71;94783.88;108089;1271;34611;-75
2022/04/08 06:49:09;;;;;;;4.10;1.00;;;;;;;14.89;33.45;94780.04;108057;1270;33693;-75
2022/04/08 06:51:40;;;;;;;1.80;0.60;;;;;;;15.02;33.67;94790.39;108096;1270;34806;-76
2022/04/08 06:54:11;;;;;;;1.70;0.80;;;;;;;15.00;32.94;94787.75;108125;1270;34307;-76
2022/04/08 06:56:42;;;;;;;2.30;1.20;;;;;;;14.95;33.36;94796.09;107933;1273;36336;-77
2022/04/08 06:59:13;;;;;;;3.00;0.70;;;;;;;15.81;33.53;94795.91;108075;1270;30654;-76
2022/04/08 07:01:44;;;;;;;2.00;1.00;;;;;;;15.54;31.40;94780.91;107941;1272;30486;-75
2022/04/08 07:04:15;;;;;;;3.10;1.20;;;;;;;14.60;32.72;94802.29;108082;1270;48445;-76
2022/04/08 07:06:46;;;;;;;2.50;1.10;;;;;;;14.32;33.47;94805.13;108061;1270;31805;-76
2022/04/08 07:09:17;;;;;;;1.60;0.60;;;;;;;14.34;32.86;94813.70;108006;1271;36178;-76
2022/04/08 07:11:48;;;;;;;3.20;1.00;;;;;;;13.28;33.77;94818.45;107990;1270;48284;-75
2022/04/08 07:14:18;;;;;;;3.10;1.10;;;;;;;13.38;34.82;94823.30;108057;1270;32759;-75
2022/04/08 07:16:49;;;;;;;1.80;1.30;;;;;;;14.46;35.49;94833.73;108103;1270;42502;-74
2022/04/08 07:19:20;;;;;;;3.60;1.10;;;;;;;15.37;33.66;94827.75;108033;1270;44667;-76
2022/04/08 07:21:51;;;;;;;1.90;1.80;;;;;;;14.56;32.81;94831.42;108035;1270;52700;-76
2022/04/08 07:24:22;;;;;;;3.00;1.90;;;;;;;14.32;34.10;94840.77;108030;1270;43466;-76
2022/04/08 07:26:54;;;;;;;2.40;2.20;;;;;;;14.76;33.26;94835.48;108074;1270;35890;-76
2022/04/08 07:29:25;;;;;;;3.80;1.10;;;;;;;14.60;32.80;94845.63;108043;1270;44157;-75
2022/04/08 07:31:56;;;;;;;2.40;1.70;;;;;;;14.23;33.71;94849.45;108032;1270;39695;-76
2022/04/08 07:34:26;;;;;;;3.70;1.20;;;;;;;15.15;32.62;94843.80;108066;1270;39390;-75
2022/04/08 07:36:57;;;;;;;2.40;2.20;;;;;;;14.30;33.44;94857.34;108031;1270;38876;-76
2022/04/08 07:39:29;;;;;;;2.00;1.50;;;;;;;14.03;33.41;94854.84;108050;1270;40272;-76
2022/04/08 07:42:00;;;;;;;4.20;3.90;;;;;;;13.19;34.20;94868.23;108059;1270;33517;-75
2022/04/08 07:44:31;;;;;;;8.10;7.50;;;;;;;14.01;33.52;94870.00;108036;1270;38816;-77
2022/04/08 07:47:02;;;;;;;10.80;10.20;;;;;;;13.93;31.43;94865.01;108016;1270;43354;-76
2022/04/08 07:49:33;;;;;;;11.50;10.70;;;;;;;13.96;32.31;94876.34;108078;1270;33784;-76
2022/04/08 07:52:05;;;;;;;6.90;6.40;;;;;;;14.39;32.14;94880.39;108055;1270;39359;-76
2022/04/08 07:54:36;;;;;;;3.20;2.90;;;;;;;14.69;32.02;94890.58;108113;1270;31214;-76
2022/04/08 07:57:07;;;;;;;8.00;7.50;;;;;;;14.94;31.99;94889.17;108033;1270;42783;-76
2022/04/08 07:59:38;;;;;;;4.80;4.40;;;;;;;15.07;31.13;94867.31;108026;1270;36070;-76
2022/04/08 08:02:09;;;;;;;10.70;9.90;;;;;;;14.77;31.01;94879.11;108145;1270;40702;-76
2022/04/08 08:04:40;;;;;;;20.60;19.60;;;;;;;14.52;31.33;94883.58;108139;1270;38025;-76
2022/04/08 08:07:11;;;;;;;13.10;12.30;;;;;;;14.60;31.22;94892.44;108116;1270;34784;-76
2022/04/08 08:09:42;;;;;;;23.70;22.40;;;;;;;15.06;32.11;94894.05;108094;1271;29562;-76
2022/04/08 08:12:13;;;;;;;24.50;23.10;;;;;;;15.76;31.69;94895.16;108111;1270;41298;-77
2022/04/08 08:14:44;;;;;;;29.70;28.00;;;;;;;15.56;30.21;94911.16;108111;1270;31933;-77
2022/04/08 08:17:15;;;;;;;4.10;3.70;;;;;;;15.32;30.26;94893.70;108105;1270;33054;-76
2022/04/08 08:19:46;;;;;;;10.60;10.00;;;;;;;15.51;30.56;94894.41;108039;1270;49921;-77
2022/04/08 08:22:17;;;;;;;3.90;2.20;;;;;;;15.37;30.69;94907.24;108084;1270;39075;-76
2022/04/08 08:24:47;;;;;;;3.50;3.20;;;;;;;15.76;30.63;94919.96;108109;1270;40370;-76
2022/04/08 08:27:18;;;;;;;3.50;1.70;;;;;;;15.76;29.85;94902.70;108059;1270;50065;-77
2022/04/08 08:29:49;;;;;;;7.50;6.80;;;;;;;15.30;30.31;94922.89;107997;1270;51665;-77
2022/04/08 08:32:21;;;;;;;9.90;9.30;;;;;;;15.38;29.98;94913.00;107948;1273;41511;-76
2022/04/08 08:34:52;;;;;;;9.00;8.30;;;;;;;15.47;29.76;94913.34;108039;1270;32310;-76
2022/04/08 08:37:23;;;;;;;9.70;9.00;;;;;;;15.73;29.53;94918.62;108108;1270;37091;-77
2022/04/08 08:39:56;;;;;;;2.50;1.10;;;;;;;15.50;29.83;94916.38;108042;1270;41856;-76
2022/04/08 08:42:29;;;;;;;5.30;4.90;;;;;;;15.89;30.50;94926.79;108023;1270;45731;-76
2022/04/08 08:45:00;;;;;;;6.00;5.50;;;;;;;16.05;29.17;94919.23;107975;1271;38320;-76
2022/04/08 08:47:32;;;;;;;4.00;0.90;;;;;;;16.00;29.57;94922.27;108014;1270;43972;-76
2022/04/08 08:50:04;;;;;;;2.10;0.50;;;;;;;15.87;28.55;94925.23;108035;1270;39019;-76
2022/04/08 08:52:35;;;;;;;0.80;0.30;;;;;;;15.62;28.90;94932.73;108137;1270;38178;-76
2022/04/08 08:55:08;;;;;;;2.10;0.70;;;;;;;15.54;28.62;94935.39;108052;1270;40527;-76
2022/04/08 08:57:40;;;;;;;0.90;0.50;;;;;;;14.61;30.56;94935.27;108131;1270;45882;-76
2022/04/08 09:00:16;;;;;;;0.60;0.40;;;;;;;14.72;29.62;94939.89;108112;1268;40590;-76
2022/04/08 09:02:49;;;;;;;0.70;0.50;;;;;;;14.74;30.65;94939.01;108070;1270;37534;-76
2022/04/08 09:05:21;;;;;;;2.20;0.70;;;;;;;15.14;30.31;94945.79;108116;1270;43411;-76
2022/04/08 09:08:00;;;;;;;1.30;0.60;;;;;;;15.09;30.50;94921.68;108143;1270;29269;-76
2022/04/08 09:10:33;;;;;;;2.90;0.40;;;;;;;14.77;30.74;94933.00;108047;1270;44115;-76
2022/04/08 09:13:07;;;;;;;6.90;0.60;;;;;;;14.50;31.21;94953.05;108130;1270;42014;-76
2022/04/08 09:15:40;;;;;;;1.10;0.50;;;;;;;14.31;31.49;94932.06;108059;1270;43946;-76
2022/04/08 09:18:13;;;;;;;1.90;0.40;;;;;;;12.99;32.66;94950.31;108126;1270;42667;-76
2022/04/08 09:20:46;;;;;;;1.70;0.50;;;;;;;12.08;34.56;94963.11;108058;1271;34147;-76
2022/04/08 09:23:19;;;;;;;1.70;0.70;;;;;;;11.67;34.87;94967.02;107961;1271;34524;-76
2022/04/08 09:25:59;;;;;;;1.60;0.50;;;;;;;12.00;35.49;94968.89;108029;1270;38704;-76
2022/04/08 09:28:35;;;;;;;2.10;0.90;;;;;;;11.81;35.30;94974.69;108116;1270;34675;-75
2022/04/08 09:31:07;;;;;;;1.30;0.40;;;;;;;11.71;35.60;94959.83;108097;1270;32170;-76
2022/04/08 09:33:37;;;;;;;1.40;0.60;;;;;;;11.72;36.05;94958.42;108056;1270;34035;-76
2022/04/08 09:36:08;;;;;;;2.10;0.60;;;;;;;11.96;36.30;94974.83;108118;1270;31455;-76
2022/04/08 09:38:48;;;;;;;1.00;0.50;;;;;;;12.08;35.80;94961.11;108136;1270;29536;-76
2022/04/08 09:41:19;;;;;;;2.60;0.80;;;;;;;12.09;36.23;94962.45;108043;1270;40540;-76
2022/04/08 09:43:51;;;;;;;1.30;0.50;;;;;;;12.39;36.53;94960.66;108023;1270;45771;-76
2022/04/08 09:46:22;;;;;;;2.70;0.70;;;;;;;12.37;35.87;94949.75;107894;1271;67799;-76
2022/04/08 09:48:53;;;;;;;1.70;0.50;;;;;;;12.24;35.82;94950.45;108075;1270;34507;-76
2022/04/08 09:51:24;;;;;;;0.70;0.60;;;;;;;12.20;35.07;94962.52;108034;1270;40208;-76
2022/04/08 09:53:58;;;;;;;6.00;1.00;;;;;;;12.31;35.62;94965.27;108055;1269;33938;-76
2022/04/08 09:56:30;;;;;;;2.00;0.70;;;;;;;12.69;34.81;94954.94;108032;1270;36866;-76
2022/04/08 09:59:06;;;;;;;1.00;0.30;;;;;;;12.58;34.83;94963.77;108057;1270;42971;-76
2022/04/08 10:01:38;;;;;;;2.70;0.90;;;;;;;12.59;35.16;94969.65;108056;1270;31589;-75
2022/04/08 10:04:11;;;;;;;1.80;0.70;;;;;;;12.68;35.23;94970.02;108151;1270;28343;-75
2022/04/08 10:06:43;;;;;;;3.80;0.90;;;;;;;12.70;35.73;94971.68;108116;1270;33435;-75
2022/04/08 10:09:16;;;;;;;3.50;0.70;;;;;;;12.78;36.43;94971.42;108043;1270;33809;-76
2022/04/08 10:11:54;;;;;;;0.70;0.60;;;;;;;12.75;36.18;94971.85;108054;1270;44016;-76
2022/04/08 10:14:38;;;;;;;1.50;0.60;;;;;;;12.80;34.80;94964.55;108121;1270;34724;-76
2022/04/08 10:17:15;;;;;;;1.60;0.70;;;;;;;12.16;34.17;94965.89;108096;1268;31749;-76
2022/04/08 10:19:46;;;;;;;1.10;0.30;;;;;;;11.75;34.97;94976.33;108087;1269;43715;-76
2022/04/08 10:22:21;;;;;;;3.40;0.50;;;;;;;11.77;35.19;94976.63;108032;1270;31219;-76
2022/04/08 10:24:56;;;;;;;1.50;0.50;;;;;;;12.01;35.28;94976.21;108000;1271;31146;-76
2022/04/08 10:27:35;;;;;;;1.30;0.40;;;;;;;12.03;34.83;94966.70;108025;1270;40770;-76
2022/04/08 10:30:16;;;;;;;4.20;0.80;;;;;;;11.89;35.12;94967.36;108124;1270;30187;-76
2022/04/08 10:32:48;;;;;;;0.40;0.20;;;;;;;11.83;35.08;94980.30;108115;1270;30813;-76
2022/04/08 10:35:20;;;;;;;2.70;1.00;;;;;;;11.54;35.29;94979.06;108013;1270;43361;-75
2022/04/08 10:37:59;;;;;;;2.60;0.60;;;;;;;11.57;36.05;94987.98;108046;1270;41503;-76
2022/04/08 10:40:34;;;;;;;4.50;1.20;;;;;;;11.74;35.71;94988.29;107968;1270;50221;-76
2022/04/08 10:43:08;;;;;;;2.80;0.60;;;;;;;11.85;35.82;94985.23;107916;1273;40856;-76
2022/04/08 10:45:39;;;;;;;1.40;0.60;;;;;;;11.69;35.25;94985.98;108105;1270;41110;-76
2022/04/08 10:48:19;;;;;;;4.70;1.20;;;;;;;11.48;35.59;94984.14;108092;1270;41922;-76
2022/04/08 10:50:50;;;;;;;1.20;0.80;;;;;;;11.47;36.03;94983.90;108105;1270;32252;-76
2022/04/08 10:53:24;;;;;;;2.30;0.60;;;;;;;11.31;35.16;94986.86;108040;1267;32955;-75
2022/04/08 10:56:07;;;;;;;4.30;1.20;;;;;;;11.12;35.25;94982.20;107996;1270;43381;-76
2022/04/08 10:58:42;;;;;;;1.10;0.50;;;;;;;11.18;36.07;94999.69;108148;1270;35296;-76
2022/04/08 11:01:19;;;;;;;3.20;0.90;;;;;;;11.14;35.29;94992.20;108107;1270;29122;-76
2022/04/08 11:03:57;;;;;;;1.10;0.40;;;;;;;11.06;35.72;95008.45;108108;1270;71877;-76
2022/04/08 11:06:29;;;;;;;3.20;0.80;;;;;;;11.03;35.46;95014.13;108025;1270;41900;-76
2022/04/08 11:09:07;;;;;;;2.30;0.80;;;;;;;11.09;35.54;95015.09;108077;1270;34765;-75
2022/04/08 11:11:39;;;;;;;1.60;0.90;;;;;;;11.36;35.38;95003.70;108084;1270;49142;-75
2022/04/08 11:14:12;;;;;;;2.30;0.80;;;;;;;11.81;34.93;94996.90;108110;1270;33168;-76
2022/04/08 11:16:43;;;;;;;1.80;0.60;;;;;;;11.88;33.86;95001.69;108045;1273;41408;-76
2022/04/08 11:19:14;;;;;;;1.80;0.80;;;;;;;11.60;33.46;95003.47;107956;1271;44384;-76
2022/04/08 11:21:45;;;;;;;2.20;0.50;;;;;;;11.50;34.70;95016.97;108017;1270;43403;-76
2022/04/08 11:24:18;;;;;;;4.50;1.40;;;;;;;11.41;33.93;95009.89;108055;1270;33819;-76
2022/04/08 11:26:50;;;;;;;2.00;1.00;;;;;;;11.39;35.23;95013.45;108087;1269;41846;-75
2022/04/08 11:29:23;;;;;;;4.00;1.50;;;;;;;11.77;35.26;95014.17;108131;1270;33153;-75
2022/04/08 11:32:07;;;;;;;2.00;0.50;;;;;;;12.04;34.60;95009.02;108066;1270;44451;-75
2022/04/08 11:34:39;;;;;;;1.10;0.60;;;;;;;12.22;33.66;95016.26;108059;1270;35488;-75
2022/04/08 11:37:10;;;;;;;1.20;0.50;;;;;;;12.02;33.73;95002.64;108079;1270;34386;-76
2022/04/08 11:39:41;;;;;;;1.60;0.60;;;;;;;11.66;33.80;95015.36;108114;1271;34814;-76
2022/04/08 11:42:14;;;;;;;1.80;0.40;;;;;;;11.42;33.95;95009.69;108053;1270;48848;-76
2022/04/08 11:44:46;;;;;;;3.30;0.50;;;;;;;11.32;34.26;95009.25;108085;1270;33660;-77
2022/04/08 11:47:18;;;;;;;1.10;0.40;;;;;;;11.34;33.55;95002.40;108082;1270;40314;-76